Time;durP1;ratioP1;P1;durP2;ratioP2;P2;SDS_P1;SDS_P2;PMS_P1;PMS_P2;Temp;Humidity;BMP_temperature;BMP_pressure;BME280_temperature;BME280_humidity;BME280_pressure;Samples;Min_cycle;Max_cycle;Signal;HPM_P1;HPM_P2
2022/01/03 00:01:20;;;;;;;15.68;9.52;;;;;;;;;;6242203;28;20037;-66
2022/01/03 00:04:24;;;;;;;15.57;9.60;;;;;;;;;;6242267;28;20052;-65
2022/01/03 00:07:27;;;;;;;16.02;9.70;;;;;;;;;;6239986;28;20045;-66
2022/01/03 00:10:33;;;;;;;17.95;10.13;;;;;;;;;;6240349;28;20080;-66
2022/01/03 00:13:36;;;;;;;15.18;9.50;;;;;;;;;;6242159;28;20400;-66
2022/01/03 00:16:41;;;;;;;18.02;8.82;;;;;;;;;;6239824;28;20049;-66
2022/01/03 00:19:45;;;;;;;16.25;8.73;;;;;;;;;;6241824;28;20046;-66
2022/01/03 00:22:50;;;;;;;18.73;9.98;;;;;;;;;;6244069;28;20586;-65
2022/01/03 00:25:55;;;;;;;14.00;8.32;;;;;;;;;;6245683;28;20045;-65
2022/01/03 00:28:58;;;;;;;21.65;11.07;;;;;;;;;;6245504;28;20051;-67
2022/01/03 00:32:06;;;;;;;21.00;11.13;;;;;;;;;;6244506;28;20049;-71
2022/01/03 00:35:09;;;;;;;;;;;;;;;;;;6246609;28;20045;-70
2022/01/03 00:38:14;;;;;;;17.20;9.18;;;;;;;;;;6244757;28;19921;-69
2022/01/03 00:41:16;;;;;;;15.77;8.70;;;;;;;;;;6245624;28;20175;-69
2022/01/03 00:44:20;;;;;;;16.48;9.73;;;;;;;;;;6245687;28;20045;-69
2022/01/03 00:47:25;;;;;;;16.40;9.32;;;;;;;;;;6243975;28;20047;-69
2022/01/03 00:50:29;;;;;;;14.32;8.13;;;;;;;;;;6245242;28;20041;-70
2022/01/03 00:53:33;;;;;;;14.13;9.07;;;;;;;;;;6243975;28;20041;-69
2022/01/03 00:56:43;;;;;;;14.98;8.40;;;;;;;;;;6245532;28;20041;-69
2022/01/03 00:59:47;;;;;;;16.77;9.18;;;;;;;;;;6244665;28;20127;-70
2022/01/03 01:02:51;;;;;;;16.55;9.32;;;;;;;;;;6243727;28;20057;-70
2022/01/03 01:05:54;;;;;;;18.67;9.32;;;;;;;;;;6243957;28;20049;-70
2022/01/03 01:09:00;;;;;;;15.63;8.75;;;;;;;;;;6243327;28;20041;-69
2022/01/03 01:12:06;;;;;;;18.40;9.35;;;;;;;;;;6244914;28;20041;-71
2022/01/03 01:15:15;;;;;;;15.85;8.95;;;;;;;;;;6243391;28;20045;-68
2022/01/03 01:18:18;;;;;;;17.25;9.05;;;;;;;;;;6245428;28;20045;-66
2022/01/03 01:21:25;;;;;;;17.65;10.45;;;;;;;;;;6242818;28;20041;-65
2022/01/03 01:24:45;;;;;;;19.05;10.43;;;;;;;;;;6243366;28;20059;-65
2022/01/03 01:27:50;;;;;;;15.15;9.25;;;;;;;;;;6244656;28;20045;-66
2022/01/03 01:30:57;;;;;;;13.20;8.20;;;;;;;;;;6243247;28;20050;-66
2022/01/03 01:34:02;;;;;;;20.05;10.85;;;;;;;;;;6241955;28;20053;-66
2022/01/03 01:37:06;;;;;;;21.42;11.45;;;;;;;;;;6244157;28;20132;-65
2022/01/03 01:40:15;;;;;;;21.65;13.07;;;;;;;;;;6243127;28;20061;-65
2022/01/03 01:43:25;;;;;;;21.15;11.80;;;;;;;;;;6242608;28;20519;-65
2022/01/03 01:46:28;;;;;;;19.60;11.63;;;;;;;;;;6242707;28;20049;-65
2022/01/03 01:49:45;;;;;;;17.77;10.30;;;;;;;;;;6243094;28;20553;-65
2022/01/03 01:52:54;;;;;;;20.60;10.95;;;;;;;;;;6243033;28;20104;-65
2022/01/03 01:55:59;;;;;;;19.98;10.63;;;;;;;;;;6243593;28;20069;-65
2022/01/03 01:59:11;;;;;;;19.05;10.77;;;;;;;;;;6242339;28;20705;-65
2022/01/03 02:02:23;;;;;;;20.17;10.73;;;;;;;;;;6242663;28;20479;-66
2022/01/03 02:05:30;;;;;;;20.08;10.15;;;;;;;;;;6242373;28;20049;-65
2022/01/03 02:08:39;;;;;;;16.35;9.77;;;;;;;;;;6242032;28;20124;-67
2022/01/03 02:11:54;;;;;;;19.58;9.98;;;;;;;;;;6242230;28;20046;-66
2022/01/03 02:15:01;;;;;;;15.43;8.90;;;;;;;;;;6242848;28;20052;-67
2022/01/03 02:18:05;;;;;;;15.05;8.93;;;;;;;;;;6241541;28;20049;-64
2022/01/03 02:21:10;;;;;;;17.60;9.32;;;;;;;;;;6241967;28;20046;-66
2022/01/03 02:24:14;;;;;;;17.33;9.93;;;;;;;;;;6242080;28;20453;-66
2022/01/03 02:27:17;;;;;;;17.63;9.30;;;;;;;;;;6242388;28;20041;-67
2022/01/03 02:30:22;;;;;;;16.25;9.48;;;;;;;;;;6242528;28;20569;-66
2022/01/03 02:33:25;;;;;;;18.50;10.23;;;;;;;;;;6242456;28;20557;-64
2022/01/03 02:36:35;;;;;;;21.25;12.07;;;;;;;;;;6242060;28;20053;-66
2022/01/03 02:39:38;;;;;;;29.77;12.98;;;;;;;;;;6241206;28;20436;-66
2022/01/03 02:42:42;;;;;;;19.77;11.75;;;;;;;;;;6241462;28;20095;-66
2022/01/03 02:45:46;;;;;;;25.80;14.85;;;;;;;;;;6240651;28;20411;-66
2022/01/03 02:48:52;;;;;;;26.42;14.82;;;;;;;;;;6241633;28;20049;-66
2022/01/03 02:51:56;;;;;;;32.47;19.13;;;;;;;;;;6240649;28;20408;-66
2022/01/03 02:55:02;;;;;;;34.13;20.38;;;;;;;;;;6241484;28;20069;-66
2022/01/03 02:58:08;;;;;;;34.47;19.92;;;;;;;;;;6241157;28;20059;-67
2022/01/03 03:01:15;;;;;;;40.03;22.45;;;;;;;;;;6240842;28;20091;-66
2022/01/03 03:04:21;;;;;;;37.55;22.08;;;;;;;;;;6241106;28;20053;-65
2022/01/03 03:07:26;;;;;;;40.78;23.35;;;;;;;;;;6241199;28;20060;-66
2022/01/03 03:10:29;;;;;;;42.08;23.50;;;;;;;;;;6241307;28;20101;-65
2022/01/03 03:13:35;;;;;;;41.00;24.23;;;;;;;;;;6240595;28;20056;-66
2022/01/03 03:16:41;;;;;;;42.65;23.45;;;;;;;;;;6241012;28;20400;-65
2022/01/03 03:19:55;;;;;;;40.75;23.63;;;;;;;;;;6241478;28;20111;-64
2022/01/03 03:23:02;;;;;;;37.97;23.00;;;;;;;;;;6240667;28;20476;-67
2022/01/03 03:26:07;;;;;;;38.33;22.58;;;;;;;;;;6240683;28;20509;-65
2022/01/03 03:29:10;;;;;;;38.28;23.70;;;;;;;;;;6240940;28;20128;-66
2022/01/03 03:32:13;;;;;;;41.95;22.90;;;;;;;;;;6241487;28;20052;-66
2022/01/03 03:35:16;;;;;;;39.13;23.17;;;;;;;;;;6241591;28;20060;-66
2022/01/03 03:38:23;;;;;;;41.10;23.95;;;;;;;;;;6240184;28;20064;-66
2022/01/03 03:41:26;;;;;;;38.58;23.38;;;;;;;;;;6241222;28;20052;-66
2022/01/03 03:44:33;;;;;;;39.58;22.92;;;;;;;;;;6240261;28;20060;-65
2022/01/03 03:47:36;;;;;;;40.85;23.38;;;;;;;;;;6240625;28;20045;-66
2022/01/03 03:50:42;;;;;;;40.38;23.45;;;;;;;;;;6241232;28;20424;-65
2022/01/03 03:53:48;;;;;;;37.08;22.98;;;;;;;;;;6242570;28;20057;-65
2022/01/03 03:56:52;;;;;;;39.50;22.88;;;;;;;;;;6241219;28;20062;-66
2022/01/03 03:59:58;;;;;;;36.88;22.02;;;;;;;;;;6245204;28;20045;-65
2022/01/03 04:03:01;;;;;;;40.60;23.45;;;;;;;;;;6245981;28;20042;-66
2022/01/03 04:06:06;;;;;;;39.27;22.50;;;;;;;;;;6245715;28;20049;-66
2022/01/03 04:09:11;;;;;;;40.05;22.77;;;;;;;;;;6244832;28;20503;-66
2022/01/03 04:12:14;;;;;;;36.90;21.98;;;;;;;;;;6245212;28;20077;-67
2022/01/03 04:15:17;;;;;;;31.70;21.15;;;;;;;;;;6246300;28;20507;-66
2022/01/03 04:18:21;;;;;;;38.08;21.45;;;;;;;;;;6244349;28;20056;-66
2022/01/03 04:21:28;;;;;;;35.90;20.90;;;;;;;;;;6244891;28;20048;-66
2022/01/03 04:24:32;;;;;;;31.85;19.88;;;;;;;;;;6246505;28;20052;-66
2022/01/03 04:27:36;;;;;;;33.60;20.60;;;;;;;;;;6244132;28;20053;-66
2022/01/03 04:30:39;;;;;;;33.72;21.08;;;;;;;;;;6244417;28;20045;-66
2022/01/03 04:33:42;;;;;;;34.58;19.65;;;;;;;;;;6244740;28;20068;-66
2022/01/03 04:36:46;;;;;;;34.70;20.42;;;;;;;;;;6244333;28;20068;-66
2022/01/03 04:39:51;;;;;;;35.72;20.98;;;;;;;;;;6243726;28;20050;-65
2022/01/03 04:42:54;;;;;;;33.53;20.30;;;;;;;;;;6245545;28;20045;-65
2022/01/03 04:45:57;;;;;;;33.70;20.90;;;;;;;;;;6244618;28;20049;-65
2022/01/03 04:49:00;;;;;;;37.70;22.10;;;;;;;;;;6243570;28;20041;-66
2022/01/03 04:52:04;;;;;;;31.90;20.30;;;;;;;;;;6243888;28;20045;-66
2022/01/03 04:55:11;;;;;;;35.55;20.98;;;;;;;;;;6244519;28;20337;-65
2022/01/03 04:58:15;;;;;;;32.72;19.95;;;;;;;;;;6243785;28;20214;-66
2022/01/03 05:01:21;;;;;;;35.63;21.13;;;;;;;;;;6243384;28;20052;-66
2022/01/03 05:04:24;;;;;;;33.67;20.33;;;;;;;;;;6244213;28;20111;-66
2022/01/03 05:07:27;;;;;;;33.47;20.40;;;;;;;;;;6243927;28;20052;-65
2022/01/03 05:10:34;;;;;;;33.97;19.75;;;;;;;;;;6242120;28;20519;-66
2022/01/03 05:13:37;;;;;;;33.83;20.23;;;;;;;;;;6244743;28;20053;-67
2022/01/03 05:16:42;;;;;;;35.22;20.13;;;;;;;;;;6243942;28;20391;-65
2022/01/03 05:19:45;;;;;;;35.10;20.58;;;;;;;;;;6243094;28;20067;-65
2022/01/03 05:22:48;;;;;;;35.78;21.00;;;;;;;;;;6243023;28;20053;-66
2022/01/03 05:25:53;;;;;;;33.67;20.52;;;;;;;;;;6243442;28;20107;-65
2022/01/03 05:28:57;;;;;;;32.70;20.03;;;;;;;;;;6243706;28;20056;-65
2022/01/03 05:32:01;;;;;;;36.92;21.65;;;;;;;;;;6242698;28;20411;-65
2022/01/03 05:35:07;;;;;;;34.83;19.73;;;;;;;;;;6242867;28;20049;-65
2022/01/03 05:38:13;;;;;;;34.53;20.17;;;;;;;;;;6243101;28;20063;-66
2022/01/03 05:41:17;;;;;;;31.85;20.00;;;;;;;;;;6242457;28;20208;-66
2022/01/03 05:44:21;;;;;;;30.60;19.92;;;;;;;;;;6242568;28;20053;-66
2022/01/03 05:47:24;;;;;;;27.42;17.83;;;;;;;;;;6242949;28;20048;-66
2022/01/03 05:50:27;;;;;;;12.82;6.43;;;;;;;;;;6242840;28;20047;-66
2022/01/03 05:53:31;;;;;;;9.57;3.95;;;;;;;;;;6243512;28;20053;-66
2022/01/03 05:56:35;;;;;;;11.32;5.47;;;;;;;;;;6243775;28;20041;-66
2022/01/03 05:59:41;;;;;;;4.93;3.10;;;;;;;;;;6242905;28;20472;-66
2022/01/03 06:02:44;;;;;;;7.82;3.20;;;;;;;;;;6242005;28;20043;-66
2022/01/03 06:06:06;;;;;;;5.40;2.40;;;;;;;;;;6243373;28;20072;-66
2022/01/03 06:09:09;;;;;;;4.82;2.70;;;;;;;;;;6242452;28;20072;-66
2022/01/03 06:12:14;;;;;;;6.63;2.65;;;;;;;;;;6243647;28;20041;-65
2022/01/03 06:15:24;;;;;;;7.38;2.95;;;;;;;;;;6241584;28;20045;-65
2022/01/03 06:18:28;;;;;;;4.68;2.55;;;;;;;;;;6242133;28;20049;-66
2022/01/03 06:21:40;;;;;;;7.03;2.67;;;;;;;;;;6242223;28;20045;-66
2022/01/03 06:24:47;;;;;;;6.97;2.53;;;;;;;;;;6241688;28;20498;-66
2022/01/03 06:27:53;;;;;;;3.58;2.20;;;;;;;;;;6241272;28;20050;-67
2022/01/03 06:30:57;;;;;;;8.30;3.10;;;;;;;;;;6241973;28;20052;-67
2022/01/03 06:34:01;;;;;;;7.43;3.10;;;;;;;;;;6241824;28;20848;-67
2022/01/03 06:37:04;;;;;;;6.25;3.08;;;;;;;;;;6240877;28;20048;-67
2022/01/03 06:40:15;;;;;;;6.20;3.00;;;;;;;;;;6241112;28;20463;-66
2022/01/03 06:43:20;;;;;;;5.05;2.53;;;;;;;;;;6241810;28;20068;-67
2022/01/03 06:46:23;;;;;;;4.93;2.42;;;;;;;;;;6241226;28;20041;-66
2022/01/03 06:49:26;;;;;;;4.57;2.50;;;;;;;;;;6240939;28;20045;-66
2022/01/03 06:52:29;;;;;;;7.95;2.55;;;;;;;;;;6241401;28;20522;-66
2022/01/03 06:55:32;;;;;;;5.75;2.67;;;;;;;;;;6241542;28;20050;-66
2022/01/03 06:58:39;;;;;;;4.80;2.42;;;;;;;;;;6240982;28;20144;-65
2022/01/03 07:01:42;;;;;;;3.30;2.10;;;;;;;;;;6242231;28;20046;-67
2022/01/03 07:04:45;;;;;;;7.55;2.13;;;;;;;;;;6241505;28;20048;-67
2022/01/03 07:07:48;;;;;;;3.85;2.35;;;;;;;;;;6242290;28;20048;-65
2022/01/03 07:10:52;;;;;;;3.63;1.73;;;;;;;;;;6241056;28;20077;-67
2022/01/03 07:18:56;;;;;;;3.22;1.70;;;;;;;;;;6241269;28;20050;-65
2022/01/03 07:20:52;;;;;;;9.85;1.83;;;;;;;;;;6241811;28;20045;-65
2022/01/03 07:23:55;;;;;;;4.88;1.90;;;;;;;;;;6241765;28;20049;-66
2022/01/03 07:27:00;;;;;;;5.40;1.70;;;;;;;;;;6242270;28;20045;-66
2022/01/03 07:30:05;;;;;;;5.38;1.20;;;;;;;;;;6241381;28;20055;-65
2022/01/03 07:33:09;;;;;;;4.07;1.42;;;;;;;;;;6245861;28;20045;-65
2022/01/03 07:36:12;;;;;;;3.38;1.77;;;;;;;;;;6246175;28;20132;-66
2022/01/03 07:39:15;;;;;;;4.40;1.38;;;;;;;;;;6247767;28;20403;-67
2022/01/03 07:42:17;;;;;;;3.17;1.60;;;;;;;;;;6245124;28;20399;-67
2022/01/03 07:45:30;;;;;;;4.55;1.55;;;;;;;;;;6245205;28;20076;-64
2022/01/03 07:48:33;;;;;;;3.63;1.42;;;;;;;;;;6245485;28;20065;-67
2022/01/03 07:51:36;;;;;;;6.50;1.50;;;;;;;;;;6246956;28;20049;-66
2022/01/03 07:54:39;;;;;;;2.78;1.02;;;;;;;;;;6246244;28;20146;-65
2022/01/03 07:57:43;;;;;;;1.90;0.95;;;;;;;;;;6246913;28;20104;-67
2022/01/03 08:00:47;;;;;;;2.90;1.30;;;;;;;;;;6246780;28;20068;-66
2022/01/03 08:03:50;;;;;;;4.00;1.10;;;;;;;;;;6246117;28;20049;-65
2022/01/03 08:07:13;;;;;;;2.15;1.10;;;;;;;;;;6244440;28;20072;-66
2022/01/03 08:10:17;;;;;;;4.25;1.55;;;;;;;;;;6246887;28;20050;-66
2022/01/03 08:13:20;;;;;;;3.78;1.30;;;;;;;;;;6246429;28;20172;-67
2022/01/03 08:16:24;;;;;;;3.17;1.30;;;;;;;;;;6244191;28;20041;-66
2022/01/03 08:19:28;;;;;;;2.65;1.20;;;;;;;;;;6246076;28;20045;-66
2022/01/03 08:22:31;;;;;;;5.45;2.08;;;;;;;;;;6246839;28;20056;-67
2022/01/03 08:25:37;;;;;;;2.25;1.00;;;;;;;;;;6244164;28;20045;-67
2022/01/03 08:28:40;;;;;;;1.95;0.80;;;;;;;;;;6245722;28;20474;-66
2022/01/03 08:31:44;;;;;;;2.10;1.02;;;;;;;;;;6245035;28;20053;-66
2022/01/03 08:34:51;;;;;;;1.77;1.00;;;;;;;;;;6245986;28;20052;-66
2022/01/03 08:37:56;;;;;;;2.75;1.10;;;;;;;;;;6244736;28;20065;-67
2022/01/03 08:41:02;;;;;;;4.13;1.00;;;;;;;;;;6245530;28;20096;-65
2022/01/03 08:44:07;;;;;;;3.58;1.02;;;;;;;;;;6245976;28;20193;-67
2022/01/03 08:47:11;;;;;;;3.85;1.10;;;;;;;;;;6245512;28;20041;-65
2022/01/03 08:50:15;;;;;;;9.45;1.23;;;;;;;;;;6243597;28;20477;-66
2022/01/03 08:53:21;;;;;;;4.90;1.25;;;;;;;;;;6245977;28;20053;-65
2022/01/03 08:56:24;;;;;;;2.40;1.15;;;;;;;;;;6245519;28;20092;-66
2022/01/03 08:59:27;;;;;;;3.28;1.50;;;;;;;;;;6244604;28;20045;-65
2022/01/03 09:02:31;;;;;;;5.18;1.63;;;;;;;;;;6245035;28;20629;-66
2022/01/03 09:05:35;;;;;;;1.90;1.10;;;;;;;;;;6245584;28;20049;-65
2022/01/03 09:08:40;;;;;;;3.72;1.10;;;;;;;;;;6244496;28;20460;-66
2022/01/03 09:11:43;;;;;;;3.72;1.10;;;;;;;;;;6244671;28;20492;-66
2022/01/03 09:14:46;;;;;;;2.80;1.13;;;;;;;;;;6245279;28;20102;-66
2022/01/03 09:17:51;;;;;;;2.05;1.23;;;;;;;;;;6244862;28;20060;-66
2022/01/03 09:20:54;;;;;;;3.08;1.10;;;;;;;;;;6244172;28;20042;-65
2022/01/03 09:24:17;;;;;;;3.78;0.93;;;;;;;;;;6245180;28;20380;-66
2022/01/03 09:30:48;;;;;;;2.88;0.95;;;;;;;;;;6244467;28;20479;-65
2022/01/03 09:33:52;;;;;;;1.98;1.17;;;;;;;;;;6243831;28;20067;-65
2022/01/03 09:36:58;;;;;;;1.80;0.90;;;;;;;;;;6244872;28;20049;-66
2022/01/03 09:40:01;;;;;;;3.13;1.05;;;;;;;;;;6244473;28;20085;-66
2022/01/03 09:43:04;;;;;;;3.33;1.00;;;;;;;;;;6243858;28;20044;-65
2022/01/03 09:46:09;;;;;;;2.35;0.93;;;;;;;;;;6244312;28;20051;-66
2022/01/03 09:49:13;;;;;;;;;;;;;;;;;;6245206;28;20049;-66
2022/01/03 09:52:20;;;;;;;4.43;1.10;;;;;;;;;;6243802;28;19928;-66
2022/01/03 09:55:24;;;;;;;3.38;1.10;;;;;;;;;;6242840;28;20045;-65
2022/01/03 09:58:27;;;;;;;2.15;0.82;;;;;;;;;;6242609;28;20487;-65
2022/01/03 10:01:30;;;;;;;2.58;0.93;;;;;;;;;;6242661;28;20048;-65
2022/01/03 10:04:34;;;;;;;2.75;1.10;;;;;;;;;;6243315;28;20045;-65
2022/01/03 10:07:40;;;;;;;3.00;1.00;;;;;;;;;;6242147;28;20045;-66
2022/01/03 10:10:44;;;;;;;3.55;1.00;;;;;;;;;;6242761;28;20045;-65
2022/01/03 10:13:47;;;;;;;3.45;1.00;;;;;;;;;;6242130;28;20053;-66
2022/01/03 10:16:50;;;;;;;1.58;1.05;;;;;;;;;;6242810;28;20484;-66
2022/01/03 10:20:00;;;;;;;2.17;0.80;;;;;;;;;;6243808;28;20358;-66
2022/01/03 10:23:11;;;;;;;4.25;0.90;;;;;;;;;;6242232;28;20045;-65
2022/01/03 10:26:15;;;;;;;0.75;0.65;;;;;;;;;;6241456;28;20091;-65
2022/01/03 10:29:20;;;;;;;1.52;0.77;;;;;;;;;;6241746;28;20049;-65
2022/01/03 10:32:28;;;;;;;3.22;1.00;;;;;;;;;;6243827;28;20052;-65
2022/01/03 10:35:36;;;;;;;2.70;1.10;;;;;;;;;;6242821;28;20055;-65
2022/01/03 10:38:45;;;;;;;1.63;1.23;;;;;;;;;;6242257;28;20057;-65
2022/01/03 10:41:49;;;;;;;4.93;1.17;;;;;;;;;;6243085;28;20037;-65
2022/01/03 10:44:52;;;;;;;2.80;0.90;;;;;;;;;;6243097;28;20435;-65
2022/01/03 10:47:55;;;;;;;1.45;1.02;;;;;;;;;;6242196;28;20096;-65
2022/01/03 10:51:00;;;;;;;2.25;0.80;;;;;;;;;;6242702;28;20404;-66
2022/01/03 10:54:07;;;;;;;2.58;1.00;;;;;;;;;;6243148;28;20447;-65
2022/01/03 10:57:10;;;;;;;1.83;1.10;;;;;;;;;;6242322;28;20053;-65
2022/01/03 11:00:14;;;;;;;1.45;0.93;;;;;;;;;;6242147;28;20050;-65
2022/01/03 11:03:26;;;;;;;3.42;1.20;;;;;;;;;;6243725;28;20476;-66
2022/01/03 11:06:49;;;;;;;2.45;1.02;;;;;;;;;;6244224;28;20056;-67
2022/01/03 11:13:25;;;;;;;2.42;1.10;;;;;;;;;;6241835;28;20140;-66
2022/01/03 11:16:31;;;;;;;2.72;0.90;;;;;;;;;;6242401;28;20049;-66
2022/01/03 11:19:35;;;;;;;4.47;1.33;;;;;;;;;;6242731;28;20045;-64
2022/01/03 11:22:39;;;;;;;4.13;1.83;;;;;;;;;;6240228;28;20045;-66
2022/01/03 11:25:43;;;;;;;4.20;1.23;;;;;;;;;;6242087;28;20129;-66
2022/01/03 11:28:47;;;;;;;2.92;1.30;;;;;;;;;;6241419;28;20045;-66
2022/01/03 11:31:51;;;;;;;6.35;1.50;;;;;;;;;;6242314;28;20042;-66
2022/01/03 11:34:54;;;;;;;4.82;1.48;;;;;;;;;;6241484;28;20045;-66
2022/01/03 11:37:58;;;;;;;3.88;1.20;;;;;;;;;;6242028;28;20041;-66
2022/01/03 11:41:04;;;;;;;2.63;1.02;;;;;;;;;;6240915;28;20472;-66
2022/01/03 11:44:10;;;;;;;1.85;0.90;;;;;;;;;;6241566;28;20120;-66
2022/01/03 11:47:13;;;;;;;4.28;1.23;;;;;;;;;;6241859;28;20049;-67
2022/01/03 11:50:16;;;;;;;3.03;1.10;;;;;;;;;;6241108;28;20119;-66
2022/01/03 11:53:23;;;;;;;4.05;1.27;;;;;;;;;;6240387;28;20050;-66
2022/01/03 11:56:31;;;;;;;4.40;1.30;;;;;;;;;;6241257;28;20519;-65
2022/01/03 12:03:36;;;;;;;2.42;0.90;;;;;;;;;;6240703;28;20809;-66
2022/01/03 12:06:27;;;;;;;6.25;1.05;;;;;;;;;;6240049;28;20056;-66
2022/01/03 12:09:30;;;;;;;3.00;0.90;;;;;;;;;;6239755;28;20053;-66
2022/01/03 12:12:36;;;;;;;2.03;0.70;;;;;;;;;;6240608;28;20045;-67
2022/01/03 12:15:41;;;;;;;3.35;1.30;;;;;;;;;;6240541;28;20049;-66
2022/01/03 12:18:57;;;;;;;1.92;0.80;;;;;;;;;;6241631;28;20120;-66
2022/01/03 12:22:01;;;;;;;3.67;0.80;;;;;;;;;;6244314;28;20580;-66
2022/01/03 12:25:05;;;;;;;2.92;0.80;;;;;;;;;;6246507;28;20041;-64
2022/01/03 12:28:15;;;;;;;3.20;0.90;;;;;;;;;;6244358;28;20045;-65
2022/01/03 12:31:18;;;;;;;3.85;1.00;;;;;;;;;;6245251;28;20056;-65
2022/01/03 12:34:21;;;;;;;1.13;0.55;;;;;;;;;;6246070;28;20049;-65
2022/01/03 12:37:26;;;;;;;2.85;0.80;;;;;;;;;;6244763;28;20075;-65
2022/01/03 12:40:34;;;;;;;1.92;1.02;;;;;;;;;;6245326;28;20136;-65
2022/01/03 12:43:50;;;;;;;4.82;1.50;;;;;;;;;;6245158;28;20057;-64
2022/01/03 12:47:15;;;;;;;3.13;1.00;;;;;;;;;;6244778;28;20514;-64
2022/01/03 12:50:21;;;;;;;4.45;1.40;;;;;;;;;;6244453;28;20048;-64
2022/01/03 12:53:49;;;;;;;3.70;1.10;;;;;;;;;;6244862;28;20049;-64
2022/01/03 12:57:11;;;;;;;3.92;1.40;;;;;;;;;;6224863;28;20519;-65
2022/01/03 13:00:29;;;;;;;3.25;0.90;;;;;;;;;;6244120;28;20057;-65
2022/01/03 13:03:42;;;;;;;1.90;1.17;;;;;;;;;;6244144;28;20041;-64
2022/01/03 13:06:45;;;;;;;2.28;0.82;;;;;;;;;;6243340;28;20049;-64
2022/01/03 13:09:48;;;;;;;2.03;0.75;;;;;;;;;;6244432;28;20045;-64
2022/01/03 13:12:54;;;;;;;3.78;1.10;;;;;;;;;;6245436;28;20419;-65
2022/01/03 13:15:57;;;;;;;2.28;0.85;;;;;;;;;;6243912;28;20183;-63
2022/01/03 13:19:04;;;;;;;2.28;1.15;;;;;;;;;;6242791;28;20049;-65
2022/01/03 13:22:09;;;;;;;1.10;0.70;;;;;;;;;;6243566;28;20095;-63
2022/01/03 13:25:17;;;;;;;2.33;1.17;;;;;;;;;;6244190;28;20404;-63
2022/01/03 13:28:20;;;;;;;4.57;1.10;;;;;;;;;;6244330;28;20491;-64
2022/01/03 13:31:23;;;;;;;3.88;1.13;;;;;;;;;;6242301;28;20068;-65
2022/01/03 13:34:29;;;;;;;2.67;1.00;;;;;;;;;;6244913;28;20053;-63
2022/01/03 13:37:35;;;;;;;2.00;1.20;;;;;;;;;;6243310;28;20041;-64
2022/01/03 13:40:38;;;;;;;3.42;1.35;;;;;;;;;;6177561;28;20124;-64
2022/01/03 13:43:47;;;;;;;4.65;1.27;;;;;;;;;;6194261;28;20047;-64
2022/01/03 13:50:25;;;;;;;6.47;1.25;;;;;;;;;;6194194;28;20093;-64
2022/01/03 13:53:28;;;;;;;2.67;0.80;;;;;;;;;;6193145;28;20129;-64
2022/01/03 13:56:40;;;;;;;2.22;1.02;;;;;;;;;;6195316;28;20046;-64
2022/01/03 13:59:43;;;;;;;3.75;0.70;;;;;;;;;;6194062;28;20050;-64
2022/01/03 14:02:49;;;;;;;2.83;1.00;;;;;;;;;;6177668;28;20058;-64
2022/01/03 14:06:14;;;;;;;1.67;0.70;;;;;;;;;;6194450;28;20053;-64
2022/01/03 14:09:20;;;;;;;1.08;0.65;;;;;;;;;;6193756;28;20120;-64
2022/01/03 14:12:49;;;;;;;1.55;1.00;;;;;;;;;;6195379;28;20050;-63
2022/01/03 14:15:59;;;;;;;3.08;0.77;;;;;;;;;;6192781;28;20065;-64
2022/01/03 14:19:02;;;;;;;2.00;0.70;;;;;;;;;;6194045;28;20054;-64
2022/01/03 14:22:14;;;;;;;0.77;0.63;;;;;;;;;;6193546;28;20053;-63
2022/01/03 14:25:18;;;;;;;4.05;1.27;;;;;;;;;;6193244;28;20124;-63
2022/01/03 14:28:26;;;;;;;1.58;1.10;;;;;;;;;;6193658;28;20057;-63
2022/01/03 14:31:39;;;;;;;1.27;0.73;;;;;;;;;;6193080;28;20575;-64
2022/01/03 14:34:50;;;;;;;9.30;2.67;;;;;;;;;;6193692;28;20413;-68
2022/01/03 14:38:00;;;;;;;1.23;0.90;;;;;;;;;;6197423;28;20129;-63
2022/01/03 14:41:03;;;;;;;1.75;0.60;;;;;;;;;;6242405;28;20049;-64
2022/01/03 14:44:07;;;;;;;2.42;0.60;;;;;;;;;;6243053;28;20477;-64
2022/01/03 14:47:11;;;;;;;2.65;0.60;;;;;;;;;;6243443;28;20053;-64
2022/01/03 14:50:14;;;;;;;1.48;0.93;;;;;;;;;;6242206;28;20045;-63
2022/01/03 14:53:26;;;;;;;1.90;0.80;;;;;;;;;;6241134;28;20483;-64
2022/01/03 14:56:29;;;;;;;2.53;0.80;;;;;;;;;;6243510;28;20408;-63
2022/01/03 14:59:32;;;;;;;2.42;0.80;;;;;;;;;;6242395;28;20041;-66
2022/01/03 15:02:39;;;;;;;2.20;0.70;;;;;;;;;;6241909;28;20048;-62
2022/01/03 15:05:48;;;;;;;4.10;0.93;;;;;;;;;;6241507;28;20380;-64
2022/01/03 15:08:54;;;;;;;3.47;0.85;;;;;;;;;;6242890;28;20486;-65
2022/01/03 15:11:57;;;;;;;2.53;0.75;;;;;;;;;;6240456;28;20056;-65
2022/01/03 15:15:00;;;;;;;1.63;0.80;;;;;;;;;;6241158;28;20045;-65
2022/01/03 15:18:04;;;;;;;1.92;0.75;;;;;;;;;;6243152;28;20132;-65
2022/01/03 15:21:06;;;;;;;1.83;0.80;;;;;;;;;;6242221;28;20472;-65
2022/01/03 15:24:11;;;;;;;5.78;0.98;;;;;;;;;;6241934;28;20539;-63
2022/01/03 15:27:15;;;;;;;2.85;0.70;;;;;;;;;;6242987;28;20503;-65
2022/01/03 15:30:22;;;;;;;2.63;0.80;;;;;;;;;;6241032;28;20049;-65
2022/01/03 15:33:26;;;;;;;3.17;0.75;;;;;;;;;;6240023;28;20514;-63
2022/01/03 15:36:31;;;;;;;1.80;0.80;;;;;;;;;;6241598;28;20403;-64
2022/01/03 15:39:40;;;;;;;2.22;0.60;;;;;;;;;;6241058;28;20065;-64
2022/01/03 15:42:43;;;;;;;5.22;1.25;;;;;;;;;;6240575;28;20064;-65
2022/01/03 15:45:46;;;;;;;4.50;1.48;;;;;;;;;;6241288;28;20049;-65
2022/01/03 15:48:52;;;;;;;2.78;1.30;;;;;;;;;;6242444;28;20050;-65
2022/01/03 15:51:55;;;;;;;3.50;1.40;;;;;;;;;;6240734;28;20045;-64
2022/01/03 15:54:59;;;;;;;5.18;1.50;;;;;;;;;;6245595;28;20514;-64
2022/01/03 15:58:02;;;;;;;3.45;1.58;;;;;;;;;;6246713;28;20128;-64
2022/01/03 16:01:05;;;;;;;4.57;1.80;;;;;;;;;;6247067;28;20076;-64
2022/01/03 16:04:08;;;;;;;4.45;1.50;;;;;;;;;;6245947;28;20033;-65
2022/01/03 16:07:11;;;;;;;3.85;1.77;;;;;;;;;;6244562;28;20053;-65
2022/01/03 16:10:16;;;;;;;4.30;1.85;;;;;;;;;;6245663;28;20115;-64
2022/01/03 16:13:19;;;;;;;7.88;1.73;;;;;;;;;;6246477;28;20484;-65
2022/01/03 16:16:21;;;;;;;6.45;1.95;;;;;;;;;;6260741;28;20128;-64
2022/01/03 16:19:25;;;;;;;3.72;1.65;;;;;;;;;;6246615;28;20488;-64
2022/01/03 16:22:27;;;;;;;4.07;1.83;;;;;;;;;;6246549;28;20050;-65
2022/01/03 16:25:32;;;;;;;2.28;1.15;;;;;;;;;;6245471;28;20046;-65
2022/01/03 16:28:35;;;;;;;7.05;1.60;;;;;;;;;;6244637;28;20503;-64
2022/01/03 16:31:41;;;;;;;4.72;1.80;;;;;;;;;;6246619;28;20042;-64
2022/01/03 16:34:44;;;;;;;2.95;1.50;;;;;;;;;;6246400;28;20045;-63
2022/01/03 16:37:51;;;;;;;6.78;1.83;;;;;;;;;;6244812;28;20046;-63
2022/01/03 16:40:56;;;;;;;5.93;1.63;;;;;;;;;;6244704;28;20175;-65
2022/01/03 16:43:59;;;;;;;;;;;;;;;;;;6246759;28;20041;-65
2022/01/03 16:47:02;;;;;;;5.20;1.70;;;;;;;;;;6244744;28;20051;-65
2022/01/03 16:50:06;;;;;;;6.30;1.73;;;;;;;;;;6246599;28;20048;-65
2022/01/03 16:53:11;;;;;;;7.32;3.40;;;;;;;;;;6244416;28;20048;-65
2022/01/03 16:56:16;;;;;;;2.65;0.95;;;;;;;;;;6245471;28;20052;-65
2022/01/03 16:59:19;;;;;;;2.90;1.52;;;;;;;;;;6243547;28;20068;-65
2022/01/03 17:02:28;;;;;;;4.63;1.35;;;;;;;;;;6245766;28;20502;-65
2022/01/03 17:05:33;;;;;;;4.28;1.70;;;;;;;;;;6242862;28;20124;-65
2022/01/03 17:08:39;;;;;;;1.48;1.15;;;;;;;;;;6243147;28;20053;-65
2022/01/03 17:11:46;;;;;;;3.47;0.90;;;;;;;;;;6245074;28;20056;-65
2022/01/03 17:14:49;;;;;;;5.75;1.00;;;;;;;;;;6245208;28;20342;-65
2022/01/03 17:17:54;;;;;;;2.28;0.90;;;;;;;;;;6243336;28;20056;-64
2022/01/03 17:20:58;;;;;;;2.80;1.23;;;;;;;;;;6244322;28;20049;-64
2022/01/03 17:24:01;;;;;;;4.00;1.67;;;;;;;;;;6243914;28;20049;-65
2022/01/03 17:27:07;;;;;;;3.72;1.30;;;;;;;;;;6243447;28;20483;-65
2022/01/03 17:30:09;;;;;;;;;;;;;;;;;;6244657;28;20056;-64
2022/01/03 17:33:12;;;;;;;3.42;1.38;;;;;;;;;;6244404;28;19921;-64
2022/01/03 17:36:15;;;;;;;6.18;1.17;;;;;;;;;;6244767;28;20041;-65
2022/01/03 17:39:21;;;;;;;5.05;1.50;;;;;;;;;;6242151;28;20058;-63
2022/01/03 17:42:25;;;;;;;6.82;1.80;;;;;;;;;;6243974;28;20106;-65
2022/01/03 17:45:29;;;;;;;5.68;1.50;;;;;;;;;;6244504;28;20523;-65
2022/01/03 17:48:33;;;;;;;5.68;1.23;;;;;;;;;;6242865;28;20041;-65
2022/01/03 17:51:36;;;;;;;3.90;1.17;;;;;;;;;;6242989;28;20518;-65
2022/01/03 17:54:39;;;;;;;3.35;1.10;;;;;;;;;;6242993;28;20505;-63
2022/01/03 17:57:43;;;;;;;7.05;1.38;;;;;;;;;;6244174;28;20510;-64
2022/01/03 18:00:46;;;;;;;4.85;1.27;;;;;;;;;;6243083;28;20048;-65
2022/01/03 18:03:49;;;;;;;2.88;1.10;;;;;;;;;;6242355;28;20391;-64
2022/01/03 18:06:52;;;;;;;4.22;1.20;;;;;;;;;;6243976;28;20119;-65
2022/01/03 18:09:55;;;;;;;4.22;1.20;;;;;;;;;;6243437;28;20569;-64
2022/01/03 18:13:02;;;;;;;4.80;1.17;;;;;;;;;;6242963;28;20132;-65
2022/01/03 18:16:09;;;;;;;2.72;0.90;;;;;;;;;;6243690;28;20491;-64
2022/01/03 18:19:12;;;;;;;4.30;1.08;;;;;;;;;;6243666;28;20049;-64
2022/01/03 18:22:16;;;;;;;2.58;0.70;;;;;;;;;;6242558;28;20046;-65
2022/01/03 18:25:21;;;;;;;7.70;2.97;;;;;;;;;;6242509;28;20456;-64
2022/01/03 18:28:25;;;;;;;3.47;0.90;;;;;;;;;;6243617;28;20042;-66
2022/01/03 18:31:28;;;;;;;3.08;0.80;;;;;;;;;;6241761;28;20209;-64
2022/01/03 18:34:34;;;;;;;3.10;1.00;;;;;;;;;;6243991;28;20049;-64
2022/01/03 18:37:40;;;;;;;4.07;0.90;;;;;;;;;;6243749;28;20041;-64
2022/01/03 18:40:43;;;;;;;3.67;1.00;;;;;;;;;;6242929;28;20104;-64
2022/01/03 18:43:50;;;;;;;2.10;1.00;;;;;;;;;;6242421;28;20056;-64